Time;durP1;ratioP1;P1;durP2;ratioP2;P2;SDS_P1;SDS_P2;PMS_P1;PMS_P2;Temp;Humidity;BMP_temperature;BMP_pressure;BME280_temperature;BME280_humidity;BME280_pressure;Samples;Min_cycle;Max_cycle;Signal;HPM_P1;HPM_P2
2023/04/26 00:01:48;;;;;;;12.87;3.80;;;;;;;;;;5051113;28;20025;-63
2023/04/26 00:04:13;;;;;;;11.57;3.87;;;;;;;;;;5051444;28;20049;-62
2023/04/26 00:06:39;;;;;;;12.80;3.90;;;;;;;;;;5049510;28;21388;-62
2023/04/26 00:09:05;;;;;;;15.93;4.03;;;;;;;;;;5047691;28;20021;-63
2023/04/26 00:11:30;;;;;;;15.10;5.30;;;;;;;;;;5050314;28;20067;-63
2023/04/26 00:13:57;;;;;;;12.17;4.77;;;;;;;;;;5050668;28;20092;-63
2023/04/26 00:16:23;;;;;;;15.77;5.27;;;;;;;;;;5051453;28;20535;-62
2023/04/26 00:18:48;;;;;;;20.60;4.77;;;;;;;;;;5050868;28;20024;-63
2023/04/26 00:21:14;;;;;;;11.97;4.30;;;;;;;;;;5051056;28;20017;-63
2023/04/26 00:23:39;;;;;;;17.53;4.80;;;;;;;;;;5051169;28;20028;-63
2023/04/26 00:26:05;;;;;;;24.17;5.00;;;;;;;;;;5050791;28;20032;-63
2023/04/26 00:28:30;;;;;;;16.17;4.90;;;;;;;;;;5051472;28;20044;-63
2023/04/26 00:30:56;;;;;;;17.93;5.10;;;;;;;;;;5051164;28;20078;-63
2023/04/26 00:33:22;;;;;;;11.50;4.27;;;;;;;;;;5052513;28;20032;-63
2023/04/26 00:35:47;;;;;;;13.73;5.00;;;;;;;;;;5054833;28;20017;-62
2023/04/26 00:38:12;;;;;;;14.80;4.10;;;;;;;;;;5055421;28;20473;-63
2023/04/26 00:40:38;;;;;;;11.47;4.20;;;;;;;;;;5054954;28;20032;-63
2023/04/26 00:43:04;;;;;;;13.80;3.83;;;;;;;;;;5054187;28;20025;-63
2023/04/26 00:45:30;;;;;;;20.57;3.87;;;;;;;;;;5054976;28;20048;-63
2023/04/26 00:47:56;;;;;;;13.03;3.57;;;;;;;;;;5054378;28;20028;-63
2023/04/26 00:50:21;;;;;;;14.47;3.83;;;;;;;;;;5053451;28;20461;-63
2023/04/26 00:52:46;;;;;;;12.07;3.40;;;;;;;;;;5053409;28;20021;-62
2023/04/26 00:55:13;;;;;;;12.40;4.13;;;;;;;;;;5053479;28;20023;-63
2023/04/26 00:57:38;;;;;;;13.00;4.10;;;;;;;;;;5053819;28;20017;-63
2023/04/26 01:03:06;;;;;;;11.40;3.97;;;;;;;;;;5045867;28;20110;-62
2023/04/26 01:05:32;;;;;;;17.63;4.53;;;;;;;;;;5049059;28;20092;-62
2023/04/26 01:07:58;;;;;;;12.47;4.10;;;;;;;;;;5051029;28;20035;-63
2023/04/26 01:10:24;;;;;;;15.77;4.33;;;;;;;;;;5049572;28;20359;-61
2023/04/26 01:12:49;;;;;;;15.67;4.30;;;;;;;;;;5050962;28;20009;-62
2023/04/26 01:15:15;;;;;;;11.97;4.17;;;;;;;;;;5054416;28;20017;-61
2023/04/26 01:17:43;;;;;;;10.60;3.90;;;;;;;;;;5054308;28;20101;-62
2023/04/26 01:20:09;;;;;;;12.00;4.50;;;;;;;;;;5054429;28;20119;-62
2023/04/26 01:22:35;;;;;;;13.90;4.30;;;;;;;;;;5055041;28;20051;-62
2023/04/26 01:25:01;;;;;;;11.50;4.17;;;;;;;;;;5053997;28;20025;-62
2023/04/26 01:27:26;;;;;;;17.77;5.00;;;;;;;;;;5054262;28;20024;-61
2023/04/26 01:29:52;;;;;;;16.50;5.50;;;;;;;;;;5054466;28;20013;-62
2023/04/26 01:32:18;;;;;;;13.00;4.60;;;;;;;;;;5054014;28;20029;-62
2023/04/26 01:34:43;;;;;;;11.83;4.60;;;;;;;;;;5054208;28;20028;-62
2023/04/26 01:37:08;;;;;;;15.10;5.20;;;;;;;;;;5053297;28;20075;-61
2023/04/26 01:39:35;;;;;;;10.20;4.40;;;;;;;;;;5054104;28;20481;-62
2023/04/26 01:42:01;;;;;;;18.40;4.53;;;;;;;;;;5053908;28;20009;-62
2023/04/26 01:44:27;;;;;;;15.83;4.97;;;;;;;;;;5053587;28;20055;-62
2023/04/26 01:46:52;;;;;;;22.60;5.10;;;;;;;;;;5054124;28;20037;-62
2023/04/26 01:49:17;;;;;;;15.87;4.93;;;;;;;;;;5054078;28;20021;-61
2023/04/26 01:51:43;;;;;;;17.17;5.00;;;;;;;;;;5054087;28;20013;-62
2023/04/26 01:54:08;;;;;;;15.50;4.90;;;;;;;;;;5054283;28;20380;-62
2023/04/26 01:56:33;;;;;;;21.60;5.23;;;;;;;;;;5053428;28;20515;-62
2023/04/26 01:58:59;;;;;;;18.07;5.57;;;;;;;;;;5053732;28;20032;-62
2023/04/26 02:01:24;;;;;;;22.03;6.00;;;;;;;;;;5051977;28;20614;-63
2023/04/26 02:03:50;;;;;;;20.47;6.17;;;;;;;;;;5051248;28;20040;-62
2023/04/26 02:06:15;;;;;;;17.33;6.03;;;;;;;;;;5052144;28;20481;-62
2023/04/26 02:08:40;;;;;;;19.73;5.90;;;;;;;;;;5053509;28;20025;-63
2023/04/26 02:11:06;;;;;;;17.57;6.30;;;;;;;;;;5048935;28;20028;-62
2023/04/26 02:13:31;;;;;;;18.97;6.00;;;;;;;;;;5050331;28;20416;-62
2023/04/26 02:15:56;;;;;;;24.00;7.20;;;;;;;;;;5053797;28;20027;-62
2023/04/26 02:18:22;;;;;;;17.53;6.40;;;;;;;;;;5053466;28;20016;-62
2023/04/26 02:20:48;;;;;;;18.23;6.40;;;;;;;;;;5054305;28;20376;-69
2023/04/26 02:23:13;;;;;;;24.20;6.37;;;;;;;;;;5054005;28;20105;-69
2023/04/26 02:25:38;;;;;;;20.93;6.00;;;;;;;;;;5053376;28;20049;-63
2023/04/26 02:28:04;;;;;;;22.13;6.47;;;;;;;;;;5052426;28;20025;-63
2023/04/26 02:30:30;;;;;;;19.50;6.03;;;;;;;;;;5053186;28;20457;-63
2023/04/26 02:32:56;;;;;;;17.20;6.10;;;;;;;;;;5052360;28;20024;-63
2023/04/26 02:35:21;;;;;;;28.10;6.80;;;;;;;;;;5053017;28;20021;-63
2023/04/26 02:37:47;;;;;;;22.60;6.77;;;;;;;;;;5052508;28;20127;-63
2023/04/26 02:40:13;;;;;;;23.80;6.80;;;;;;;;;;5052648;28;20020;-63
2023/04/26 02:42:38;;;;;;;21.30;6.57;;;;;;;;;;5052370;28;20025;-62
2023/04/26 02:45:04;;;;;;;22.20;6.87;;;;;;;;;;5049064;28;20409;-62
2023/04/26 02:47:29;;;;;;;19.43;6.40;;;;;;;;;;5048640;28;20108;-63
2023/04/26 02:49:55;;;;;;;21.27;6.53;;;;;;;;;;5052745;28;20064;-63
2023/04/26 02:52:20;;;;;;;23.80;7.07;;;;;;;;;;5052519;28;20532;-62
2023/04/26 02:54:45;;;;;;;22.97;6.70;;;;;;;;;;5053139;28;20058;-62
2023/04/26 02:57:11;;;;;;;27.63;6.90;;;;;;;;;;5051561;28;20017;-61
2023/04/26 02:59:36;;;;;;;29.17;6.80;;;;;;;;;;5052178;28;20056;-61
2023/04/26 03:02:01;;;;;;;23.00;7.40;;;;;;;;;;5051007;28;20021;-65
2023/04/26 03:04:27;;;;;;;22.90;7.30;;;;;;;;;;5051388;28;20045;-61
2023/04/26 03:06:52;;;;;;;24.23;7.63;;;;;;;;;;5051467;28;20055;-62
2023/04/26 03:09:18;;;;;;;21.13;6.53;;;;;;;;;;5052565;28;20013;-61
2023/04/26 03:11:43;;;;;;;23.37;6.47;;;;;;;;;;5051101;28;20037;-61
2023/04/26 03:14:09;;;;;;;30.20;7.63;;;;;;;;;;5049877;28;20021;-61
2023/04/26 03:16:39;;;;;;;23.43;7.37;;;;;;;;;;5050251;28;20074;-61
2023/04/26 03:19:05;;;;;;;26.13;7.30;;;;;;;;;;5051614;28;20075;-62
2023/04/26 03:21:30;;;;;;;22.07;6.17;;;;;;;;;;5051427;28;20775;-61
2023/04/26 03:23:56;;;;;;;24.67;7.13;;;;;;;;;;5052097;28;20485;-61
2023/04/26 03:26:21;;;;;;;21.20;6.20;;;;;;;;;;5052087;28;20017;-61
2023/04/26 03:28:46;;;;;;;21.30;6.83;;;;;;;;;;5052010;28;20044;-61
2023/04/26 03:31:11;;;;;;;23.33;6.80;;;;;;;;;;5050928;28;20027;-61
2023/04/26 03:33:37;;;;;;;24.80;7.17;;;;;;;;;;5052336;28;20025;-61
2023/04/26 03:36:02;;;;;;;21.07;6.57;;;;;;;;;;5051682;28;20503;-61
2023/04/26 03:38:28;;;;;;;23.20;7.00;;;;;;;;;;5052029;28;20017;-62
2023/04/26 03:40:53;;;;;;;30.67;7.20;;;;;;;;;;5051500;28;20025;-62
2023/04/26 03:43:18;;;;;;;27.30;7.73;;;;;;;;;;5051718;28;20086;-61
2023/04/26 03:45:45;;;;;;;31.23;7.53;;;;;;;;;;5051292;28;20040;-62
2023/04/26 03:48:11;;;;;;;26.60;6.83;;;;;;;;;;5051315;28;20048;-61
2023/04/26 03:50:36;;;;;;;19.33;6.60;;;;;;;;;;5052076;28;20437;-61
2023/04/26 03:53:02;;;;;;;19.67;6.73;;;;;;;;;;5051730;28;20476;-61
2023/04/26 03:55:27;;;;;;;20.43;6.27;;;;;;;;;;5052070;28;20021;-61
2023/04/26 03:57:52;;;;;;;23.40;6.90;;;;;;;;;;5051334;28;20047;-61
2023/04/26 04:00:18;;;;;;;22.50;7.13;;;;;;;;;;5051723;28;20071;-62
2023/04/26 04:02:43;;;;;;;21.57;6.67;;;;;;;;;;5049903;28;20107;-62
2023/04/26 04:05:09;;;;;;;15.77;4.93;;;;;;;;;;5048148;28;20064;-62
2023/04/26 04:07:34;;;;;;;16.50;5.90;;;;;;;;;;5049118;28;20017;-62
2023/04/26 04:09:59;;;;;;;23.43;6.07;;;;;;;;;;5052968;28;20096;-62
2023/04/26 04:12:25;;;;;;;17.97;6.40;;;;;;;;;;5051249;28;20155;-63
2023/04/26 04:14:51;;;;;;;24.30;6.33;;;;;;;;;;5048097;28;20389;-63
2023/04/26 04:17:16;;;;;;;17.97;5.73;;;;;;;;;;5049056;28;20021;-64
2023/04/26 04:19:42;;;;;;;19.70;7.03;;;;;;;;;;5052257;28;20029;-63
2023/04/26 04:22:07;;;;;;;24.43;5.60;;;;;;;;;;5051090;28;20049;-63
2023/04/26 04:24:32;;;;;;;17.43;5.67;;;;;;;;;;5052390;28;20036;-62
2023/04/26 04:27:00;;;;;;;23.60;5.43;;;;;;;;;;5049887;28;20029;-63
2023/04/26 04:29:25;;;;;;;18.20;6.20;;;;;;;;;;5051239;28;20021;-63
2023/04/26 04:31:51;;;;;;;15.30;5.97;;;;;;;;;;5049999;28;20473;-63
2023/04/26 04:34:16;;;;;;;16.47;5.57;;;;;;;;;;5047112;28;20025;-63
2023/04/26 04:36:42;;;;;;;16.23;5.60;;;;;;;;;;5051707;28;20048;-64
2023/04/26 04:39:12;;;;;;;19.43;5.80;;;;;;;;;;5050999;28;20428;-64
2023/04/26 04:41:37;;;;;;;16.20;5.60;;;;;;;;;;5050068;28;20021;-63
2023/04/26 04:44:03;;;;;;;17.90;6.10;;;;;;;;;;5048026;28;20090;-63
2023/04/26 04:46:28;;;;;;;22.27;6.07;;;;;;;;;;5048022;28;20484;-63
2023/04/26 04:48:53;;;;;;;20.33;5.60;;;;;;;;;;5052375;28;20029;-62
2023/04/26 04:51:18;;;;;;;17.33;5.57;;;;;;;;;;5050970;28;20510;-63
2023/04/26 04:53:44;;;;;;;19.63;6.27;;;;;;;;;;5049805;28;20029;-62
2023/04/26 04:56:09;;;;;;;17.27;5.40;;;;;;;;;;5049485;28;20018;-62
2023/04/26 04:58:35;;;;;;;18.03;5.83;;;;;;;;;;5051034;28;20032;-62
2023/04/26 05:01:00;;;;;;;13.73;5.27;;;;;;;;;;5051869;28;20029;-62
2023/04/26 05:03:25;;;;;;;15.97;5.27;;;;;;;;;;5049793;28;20028;-62
2023/04/26 05:05:50;;;;;;;18.30;5.77;;;;;;;;;;5049710;28;20028;-63
2023/04/26 05:08:16;;;;;;;16.23;5.17;;;;;;;;;;5051677;28;20032;-62
2023/04/26 05:10:41;;;;;;;18.63;5.30;;;;;;;;;;5051031;28;20443;-61
2023/04/26 05:13:06;;;;;;;15.70;5.30;;;;;;;;;;5051225;28;20505;-61
2023/04/26 05:15:32;;;;;;;16.60;5.20;;;;;;;;;;5045603;28;20116;-60
2023/04/26 05:17:58;;;;;;;14.27;4.70;;;;;;;;;;5046811;28;20013;-60
2023/04/26 05:20:24;;;;;;;11.40;4.10;;;;;;;;;;5048966;28;20017;-61
2023/04/26 05:22:49;;;;;;;17.90;5.03;;;;;;;;;;5050413;28;20025;-60
2023/04/26 05:25:15;;;;;;;7.77;3.13;;;;;;;;;;5056512;28;20436;-60
2023/04/26 05:27:41;;;;;;;13.47;4.07;;;;;;;;;;5059201;28;20025;-61
2023/04/26 05:30:07;;;;;;;8.90;3.43;;;;;;;;;;5055989;28;20074;-60
2023/04/26 05:32:32;;;;;;;11.97;3.93;;;;;;;;;;5046703;28;20071;-61
2023/04/26 05:34:57;;;;;;;9.30;3.53;;;;;;;;;;5052919;28;20021;-61
2023/04/26 05:37:23;;;;;;;11.10;3.13;;;;;;;;;;5052238;28;20025;-60
2023/04/26 05:39:48;;;;;;;10.60;3.50;;;;;;;;;;5047879;28;20048;-61
2023/04/26 05:42:13;;;;;;;13.30;3.80;;;;;;;;;;5063720;28;20472;-62
2023/04/26 05:44:39;;;;;;;12.37;3.93;;;;;;;;;;5053593;28;20091;-61
2023/04/26 05:47:05;;;;;;;12.73;4.50;;;;;;;;;;5054264;28;20028;-61
2023/04/26 05:49:30;;;;;;;13.93;4.00;;;;;;;;;;5055445;28;20092;-61
2023/04/26 05:51:57;;;;;;;12.37;3.93;;;;;;;;;;5053806;28;20025;-61
2023/04/26 05:54:22;;;;;;;13.97;3.60;;;;;;;;;;5054897;28;20388;-61
2023/04/26 05:56:48;;;;;;;9.60;3.60;;;;;;;;;;5055549;28;20088;-60
2023/04/26 05:59:13;;;;;;;10.60;3.50;;;;;;;;;;5055305;28;20366;-61
2023/04/26 06:01:38;;;;;;;8.43;3.30;;;;;;;;;;5053138;28;20362;-61
2023/04/26 06:04:04;;;;;;;9.20;2.87;;;;;;;;;;5054200;28;20497;-60
2023/04/26 06:06:30;;;;;;;7.30;2.80;;;;;;;;;;5055156;28;20096;-60
2023/04/26 06:08:56;;;;;;;15.33;3.70;;;;;;;;;;5055412;28;20094;-60
2023/04/26 06:11:21;;;;;;;11.57;3.33;;;;;;;;;;5054821;28;20024;-61
2023/04/26 06:13:47;;;;;;;8.83;3.07;;;;;;;;;;5054917;28;20021;-61
2023/04/26 06:16:12;;;;;;;7.17;3.33;;;;;;;;;;5053239;28;20025;-61
2023/04/26 06:18:37;;;;;;;14.63;4.27;;;;;;;;;;5053798;28;20029;-61
2023/04/26 06:21:03;;;;;;;11.23;3.33;;;;;;;;;;5054505;28;20033;-61
2023/04/26 06:23:28;;;;;;;9.53;2.80;;;;;;;;;;5054748;28;20025;-60
2023/04/26 06:25:53;;;;;;;9.03;2.50;;;;;;;;;;5054161;28;20021;-61
2023/04/26 06:28:19;;;;;;;17.83;3.40;;;;;;;;;;5053576;28;20040;-60
2023/04/26 06:30:44;;;;;;;10.63;2.70;;;;;;;;;;5053169;28;20389;-60
2023/04/26 06:33:09;;;;;;;12.07;2.80;;;;;;;;;;5054538;28;20477;-61
2023/04/26 06:35:38;;;;;;;15.13;3.03;;;;;;;;;;5054505;28;20021;-61
2023/04/26 06:38:03;;;;;;;9.57;2.90;;;;;;;;;;5054404;28;20526;-61
2023/04/26 06:40:29;;;;;;;7.93;3.07;;;;;;;;;;5054655;28;20052;-61
2023/04/26 06:42:55;;;;;;;13.00;2.90;;;;;;;;;;5054550;28;20108;-61
2023/04/26 06:45:21;;;;;;;10.90;2.70;;;;;;;;;;5053711;28;20025;-62
2023/04/26 06:47:46;;;;;;;10.10;2.90;;;;;;;;;;5054335;28;20029;-62
2023/04/26 06:50:12;;;;;;;11.97;2.80;;;;;;;;;;5054192;28;20028;-62
2023/04/26 06:52:37;;;;;;;9.67;2.93;;;;;;;;;;5054110;28;20067;-63
2023/04/26 06:55:03;;;;;;;10.33;3.27;;;;;;;;;;5054166;28;20020;-62
2023/04/26 06:57:28;;;;;;;10.37;3.30;;;;;;;;;;5053461;28;20077;-63
2023/04/26 06:59:53;;;;;;;9.00;3.17;;;;;;;;;;5054186;28;20021;-62
2023/04/26 07:02:19;;;;;;;12.13;3.30;;;;;;;;;;5051574;28;20054;-63
2023/04/26 07:04:44;;;;;;;9.67;3.23;;;;;;;;;;5053828;28;20053;-62
2023/04/26 07:07:10;;;;;;;8.13;3.00;;;;;;;;;;5053373;28;20053;-62
2023/04/26 07:09:35;;;;;;;8.77;2.87;;;;;;;;;;5054157;28;20108;-62
2023/04/26 07:12:01;;;;;;;12.27;2.97;;;;;;;;;;5053417;28;20039;-62
2023/04/26 07:14:26;;;;;;;8.70;2.40;;;;;;;;;;5054071;28;20100;-62
2023/04/26 07:16:51;;;;;;;9.27;2.80;;;;;;;;;;5052185;28;20044;-61
2023/04/26 07:19:17;;;;;;;6.20;2.47;;;;;;;;;;5054063;28;20048;-62
2023/04/26 07:21:42;;;;;;;11.07;3.20;;;;;;;;;;5054059;28;20473;-61
2023/04/26 07:24:07;;;;;;;9.50;3.00;;;;;;;;;;5054010;28;20465;-60
2023/04/26 07:26:33;;;;;;;7.47;2.87;;;;;;;;;;5052992;28;20048;-61
2023/04/26 07:28:59;;;;;;;9.30;2.77;;;;;;;;;;5053849;28;20029;-60
2023/04/26 07:31:25;;;;;;;10.90;2.80;;;;;;;;;;5052018;28;20111;-60
2023/04/26 07:33:50;;;;;;;7.23;2.80;;;;;;;;;;5053613;28;20044;-61
2023/04/26 07:36:16;;;;;;;7.23;2.70;;;;;;;;;;5051627;28;20025;-60
2023/04/26 07:38:41;;;;;;;5.97;1.90;;;;;;;;;;5053378;28;20021;-60
2023/04/26 07:41:07;;;;;;;12.00;2.93;;;;;;;;;;5053310;28;20119;-61
2023/04/26 07:43:32;;;;;;;9.10;2.77;;;;;;;;;;5052307;28;20032;-60
2023/04/26 07:46:00;;;;;;;9.20;2.30;;;;;;;;;;5052361;28;20491;-61
2023/04/26 07:48:26;;;;;;;12.97;2.30;;;;;;;;;;5053497;28;20024;-63
2023/04/26 07:50:51;;;;;;;7.17;2.10;;;;;;;;;;5052788;28;20028;-60
2023/04/26 07:53:16;;;;;;;6.10;2.23;;;;;;;;;;5053386;28;20029;-60
2023/04/26 07:55:42;;;;;;;10.07;2.10;;;;;;;;;;5051980;28;20072;-61
2023/04/26 07:58:08;;;;;;;5.65;2.20;;;;;;;;;;5053082;28;20097;-60
2023/04/26 08:00:37;;;;;;;6.57;2.30;;;;;;;;;;5052892;28;20033;-60
2023/04/26 08:03:02;;;;;;;10.48;2.28;;;;;;;;;;5050329;28;20021;-60
2023/04/26 08:05:27;;;;;;;6.50;2.03;;;;;;;;;;5052980;28;20413;-60
2023/04/26 08:07:53;;;;;;;4.10;1.80;;;;;;;;;;5050561;28;20036;-61
2023/04/26 08:10:18;;;;;;;8.10;2.10;;;;;;;;;;5052821;28;20056;-61
2023/04/26 08:12:43;;;;;;;6.40;1.73;;;;;;;;;;5052885;28;20036;-60
2023/04/26 08:15:09;;;;;;;8.07;2.15;;;;;;;;;;5052590;28;20029;-61
2023/04/26 08:17:35;;;;;;;8.30;2.17;;;;;;;;;;5050820;28;20040;-61
2023/04/26 08:20:00;;;;;;;5.72;2.00;;;;;;;;;;5052797;28;20081;-61
2023/04/26 08:22:26;;;;;;;7.45;2.13;;;;;;;;;;5053111;28;20451;-61
2023/04/26 08:24:53;;;;;;;8.45;2.10;;;;;;;;;;5053111;28;20099;-61
2023/04/26 08:27:18;;;;;;;5.93;1.65;;;;;;;;;;5051744;28;20021;-61
2023/04/26 08:29:45;;;;;;;8.63;2.20;;;;;;;;;;5051817;28;20024;-61
2023/04/26 08:32:10;;;;;;;6.25;2.00;;;;;;;;;;5051585;28;20028;-61
2023/04/26 08:34:35;;;;;;;8.48;2.65;;;;;;;;;;5053095;28;20469;-61
2023/04/26 08:37:01;;;;;;;5.72;1.88;;;;;;;;;;5052508;28;20029;-61
2023/04/26 08:39:26;;;;;;;8.95;2.13;;;;;;;;;;5053088;28;20362;-60
2023/04/26 08:41:53;;;;;;;6.23;1.90;;;;;;;;;;5052649;28;20478;-60
2023/04/26 08:44:22;;;;;;;6.97;2.37;;;;;;;;;;5052945;28;20509;-59
2023/04/26 08:47:08;;;;;;;7.13;2.03;;;;;;;;;;5052292;28;20040;-60
2023/04/26 08:49:39;;;;;;;5.78;1.70;;;;;;;;;;5052067;28;20044;-60
2023/04/26 08:52:07;;;;;;;4.53;1.80;;;;;;;;;;5052866;28;20468;-60
2023/04/26 08:54:33;;;;;;;7.15;2.15;;;;;;;;;;5053037;28;20052;-60
2023/04/26 08:56:59;;;;;;;3.70;1.50;;;;;;;;;;5056721;28;20368;-60
2023/04/26 08:59:25;;;;;;;8.38;1.85;;;;;;;;;;5056720;28;20027;-60
2023/04/26 09:01:51;;;;;;;4.95;1.65;;;;;;;;;;5055024;28;20028;-58
2023/04/26 09:04:17;;;;;;;7.43;2.20;;;;;;;;;;5054433;28;20045;-60
2023/04/26 09:06:43;;;;;;;7.65;2.08;;;;;;;;;;5056194;28;20630;-60
2023/04/26 09:09:10;;;;;;;5.47;1.52;;;;;;;;;;5056260;28;20049;-60
2023/04/26 09:11:51;;;;;;;8.05;2.45;;;;;;;;;;5055034;28;20118;-60
2023/04/26 09:14:17;;;;;;;5.82;2.20;;;;;;;;;;5055018;28;20354;-61
2023/04/26 09:16:42;;;;;;;8.17;2.10;;;;;;;;;;5055280;28;20024;-61
2023/04/26 09:19:07;;;;;;;3.45;1.50;;;;;;;;;;5056148;28;20017;-60
2023/04/26 09:21:33;;;;;;;6.22;2.03;;;;;;;;;;5056355;28;20029;-60
2023/04/26 09:24:03;;;;;;;4.35;1.60;;;;;;;;;;5055907;28;20499;-61
2023/04/26 09:26:28;;;;;;;4.55;1.85;;;;;;;;;;5054946;28;20434;-60
2023/04/26 09:29:15;;;;;;;7.55;2.15;;;;;;;;;;5056092;28;20101;-60
2023/04/26 09:31:45;;;;;;;8.77;2.00;;;;;;;;;;5054655;28;20041;-61
2023/04/26 09:34:11;;;;;;;6.60;2.20;;;;;;;;;;5036206;28;20018;-60
2023/04/26 09:36:52;;;;;;;4.97;1.97;;;;;;;;;;5037629;28;20075;-60
2023/04/26 09:39:39;;;;;;;5.50;1.40;;;;;;;;;;5036101;28;20021;-60
2023/04/26 09:42:04;;;;;;;6.70;1.88;;;;;;;;;;5035526;28;20473;-60
2023/04/26 09:44:30;;;;;;;5.77;2.20;;;;;;;;;;5035963;28;20021;-59
2023/04/26 09:47:09;;;;;;;6.18;2.00;;;;;;;;;;5039420;28;20025;-59
2023/04/26 09:49:49;;;;;;;8.43;1.70;;;;;;;;;;5053716;28;20040;-60
2023/04/26 09:52:15;;;;;;;7.97;1.83;;;;;;;;;;5055675;28;20473;-60
2023/04/26 09:54:47;;;;;;;5.70;2.15;;;;;;;;;;5055599;28;20408;-60
2023/04/26 09:57:13;;;;;;;4.45;2.08;;;;;;;;;;5054679;28;20044;-60
2023/04/26 09:59:40;;;;;;;6.38;2.22;;;;;;;;;;5054834;28;20028;-61
2023/04/26 10:02:09;;;;;;;5.97;2.00;;;;;;;;;;5053148;28;20021;-60
2023/04/26 10:04:34;;;;;;;9.18;2.33;;;;;;;;;;5054341;28;20124;-60
2023/04/26 10:07:00;;;;;;;4.60;1.60;;;;;;;;;;5054790;28;20052;-61
2023/04/26 10:09:26;;;;;;;3.85;1.73;;;;;;;;;;5055427;28;20025;-61
2023/04/26 10:11:51;;;;;;;6.80;2.10;;;;;;;;;;5055357;28;20025;-61
2023/04/26 10:14:17;;;;;;;5.47;1.80;;;;;;;;;;5054387;28;20096;-61
2023/04/26 10:16:43;;;;;;;5.37;2.20;;;;;;;;;;5054958;28;20025;-61
2023/04/26 10:19:09;;;;;;;6.87;2.63;;;;;;;;;;5052546;28;20043;-61
2023/04/26 10:21:35;;;;;;;7.63;2.30;;;;;;;;;;5054834;28;20502;-61
2023/04/26 10:24:01;;;;;;;7.63;2.47;;;;;;;;;;5054095;28;20028;-62
2023/04/26 10:27:05;;;;;;;4.07;1.73;;;;;;;;;;5053840;28;20437;-61
2023/04/26 10:29:49;;;;;;;7.30;2.47;;;;;;;;;;5012176;28;20087;-61
2023/04/26 10:32:18;;;;;;;9.40;2.40;;;;;;;;;;5011630;28;20105;-62
2023/04/26 10:34:44;;;;;;;8.33;2.50;;;;;;;;;;5012799;28;20518;-61
2023/04/26 10:37:10;;;;;;;5.03;2.10;;;;;;;;;;5012876;28;20080;-62
2023/04/26 10:39:36;;;;;;;9.27;2.20;;;;;;;;;;5011978;28;20393;-60
2023/04/26 10:42:23;;;;;;;5.33;2.13;;;;;;;;;;5012012;28;20084;-61
2023/04/26 10:44:52;;;;;;;6.23;2.20;;;;;;;;;;5011499;28;20037;-61
2023/04/26 10:47:27;;;;;;;5.57;2.00;;;;;;;;;;5012197;28;20022;-61
2023/04/26 10:50:00;;;;;;;4.60;1.90;;;;;;;;;;5012356;28;20036;-61
2023/04/26 10:52:26;;;;;;;6.93;1.80;;;;;;;;;;5012385;28;20034;-61
2023/04/26 10:54:52;;;;;;;5.35;2.25;;;;;;;;;;5011943;28;20041;-61
2023/04/26 10:57:18;;;;;;;7.25;1.67;;;;;;;;;;5012464;28;20477;-61
2023/04/26 11:00:04;;;;;;;4.53;1.70;;;;;;;;;;5024075;28;20064;-62
2023/04/26 11:02:48;;;;;;;4.82;1.70;;;;;;;;;;5052328;28;20060;-61
2023/04/26 11:05:32;;;;;;;6.15;1.63;;;;;;;;;;5039808;28;20049;-61
2023/04/26 11:08:26;;;;;;;5.70;2.05;;;;;;;;;;5053764;28;20108;-62
2023/04/26 11:11:10;;;;;;;4.55;1.65;;;;;;;;;;5011975;28;20042;-61
2023/04/26 11:13:38;;;;;;;6.80;1.90;;;;;;;;;;5011477;28;20414;-62
2023/04/26 11:16:04;;;;;;;5.18;1.80;;;;;;;;;;5011489;28;20033;-62
2023/04/26 11:18:31;;;;;;;6.53;2.10;;;;;;;;;;5009882;28;20056;-61
2023/04/26 11:20:57;;;;;;;7.22;2.28;;;;;;;;;;5011970;28;20038;-62
2023/04/26 11:23:22;;;;;;;4.85;1.90;;;;;;;;;;5011337;28;20034;-61
2023/04/26 11:25:48;;;;;;;8.35;2.53;;;;;;;;;;5011708;28;20466;-62
2023/04/26 11:28:14;;;;;;;5.00;1.92;;;;;;;;;;5011886;28;20030;-61
2023/04/26 11:30:39;;;;;;;5.43;1.83;;;;;;;;;;5011768;28;20103;-61
2023/04/26 11:33:05;;;;;;;4.40;1.80;;;;;;;;;;5010701;28;20049;-61
2023/04/26 11:35:37;;;;;;;4.70;1.93;;;;;;;;;;5010906;28;20494;-62
2023/04/26 11:38:04;;;;;;;4.97;2.47;;;;;;;;;;5011720;28;20101;-62
2023/04/26 11:40:30;;;;;;;5.23;2.20;;;;;;;;;;5011719;28;20451;-69
2023/04/26 11:43:00;;;;;;;11.67;2.60;;;;;;;;;;5010937;28;20105;-63
2023/04/26 11:45:25;;;;;;;7.03;2.13;;;;;;;;;;5010991;28;20103;-63
2023/04/26 11:47:51;;;;;;;7.13;2.53;;;;;;;;;;5042184;28;20033;-63
2023/04/26 11:50:17;;;;;;;9.10;2.63;;;;;;;;;;5051178;28;20659;-62
2023/04/26 11:52:43;;;;;;;8.90;2.57;;;;;;;;;;5053399;28;20021;-63
2023/04/26 11:55:09;;;;;;;7.50;2.77;;;;;;;;;;5051820;28;20423;-63
2023/04/26 11:57:34;;;;;;;7.23;2.93;;;;;;;;;;5053444;28;20024;-62
2023/04/26 12:00:13;;;;;;;7.27;3.17;;;;;;;;;;5053207;28;20390;-63
2023/04/26 12:02:45;;;;;;;8.20;2.93;;;;;;;;;;5051701;28;20021;-63
2023/04/26 12:05:10;;;;;;;;;;;;;;;;;;5051560;28;20078;-63
2023/04/26 12:07:39;;;;;;;10.33;3.30;;;;;;;;;;5051252;28;20003;-63
2023/04/26 12:10:14;;;;;;;6.80;3.00;;;;;;;;;;5052830;28;20082;-63
2023/04/26 12:12:42;;;;;;;10.10;3.00;;;;;;;;;;5052353;28;20036;-63
2023/04/26 12:15:09;;;;;;;7.17;2.97;;;;;;;;;;5052636;28;20090;-63
2023/04/26 12:17:35;;;;;;;7.90;3.00;;;;;;;;;;5052136;28;20036;-63
2023/04/26 12:20:07;;;;;;;6.17;2.80;;;;;;;;;;5050644;28;20017;-63
2023/04/26 12:22:32;;;;;;;8.60;3.20;;;;;;;;;;5053168;28;20473;-63
2023/04/26 12:25:05;;;;;;;9.40;2.67;;;;;;;;;;5052865;28;20025;-63
2023/04/26 12:27:30;;;;;;;8.07;2.90;;;;;;;;;;5053113;28;20416;-63
2023/04/26 12:29:56;;;;;;;8.97;2.97;;;;;;;;;;5055216;28;20033;-63
2023/04/26 12:32:21;;;;;;;10.47;3.30;;;;;;;;;;5057285;28;20028;-63
2023/04/26 12:34:47;;;;;;;8.37;3.37;;;;;;;;;;5055319;28;20029;-63
2023/04/26 12:37:12;;;;;;;9.07;3.40;;;;;;;;;;5057179;28;20060;-63
2023/04/26 12:39:37;;;;;;;9.17;3.30;;;;;;;;;;5056829;28;20430;-63
2023/04/26 12:42:03;;;;;;;7.03;2.90;;;;;;;;;;5056852;28;20025;-63
2023/04/26 12:44:28;;;;;;;11.30;3.20;;;;;;;;;;5055993;28;20025;-62
2023/04/26 12:46:53;;;;;;;8.83;2.93;;;;;;;;;;5056943;28;20028;-63
2023/04/26 12:49:19;;;;;;;8.27;2.63;;;;;;;;;;5054887;28;20377;-63
2023/04/26 12:51:44;;;;;;;9.33;2.70;;;;;;;;;;5055927;28;20564;-63
2023/04/26 12:54:10;;;;;;;9.33;3.00;;;;;;;;;;5056663;28;20036;-63
2023/04/26 12:56:39;;;;;;;7.63;2.63;;;;;;;;;;5056504;28;20393;-62
2023/04/26 12:59:05;;;;;;;11.87;3.20;;;;;;;;;;5056771;28;20373;-63
2023/04/26 13:01:30;;;;;;;10.20;2.50;;;;;;;;;;5055675;28;20021;-63
2023/04/26 13:03:58;;;;;;;7.77;2.47;;;;;;;;;;5053743;28;20053;-63
2023/04/26 13:06:23;;;;;;;13.10;3.83;;;;;;;;;;5054961;28;20078;-62
2023/04/26 13:08:49;;;;;;;8.67;2.60;;;;;;;;;;5055837;28;20033;-63
2023/04/26 13:11:15;;;;;;;9.97;2.47;;;;;;;;;;5055554;28;20052;-63
2023/04/26 13:13:40;;;;;;;9.23;2.70;;;;;;;;;;5056448;28;20029;-63
2023/04/26 13:16:06;;;;;;;6.53;2.10;;;;;;;;;;5056132;28;20025;-63
2023/04/26 13:18:31;;;;;;;7.37;2.57;;;;;;;;;;5055973;28;20021;-63
2023/04/26 13:20:56;;;;;;;8.77;2.33;;;;;;;;;;5054461;28;20036;-62
2023/04/26 13:23:22;;;;;;;7.80;2.50;;;;;;;;;;5056304;28;20094;-63
2023/04/26 13:25:47;;;;;;;6.10;2.30;;;;;;;;;;5056221;28;20033;-63
2023/04/26 13:28:12;;;;;;;5.07;2.20;;;;;;;;;;5056236;28;20478;-63
2023/04/26 13:30:38;;;;;;;7.93;2.23;;;;;;;;;;5054967;28;20028;-63
2023/04/26 13:33:03;;;;;;;8.83;2.40;;;;;;;;;;5055238;28;20034;-63
2023/04/26 13:35:29;;;;;;;7.73;2.33;;;;;;;;;;5053361;28;20473;-63
2023/04/26 13:37:55;;;;;;;8.57;2.30;;;;;;;;;;5055656;28;20036;-63
2023/04/26 13:40:21;;;;;;;7.63;2.10;;;;;;;;;;5054976;28;20079;-63
2023/04/26 13:42:46;;;;;;;5.57;2.07;;;;;;;;;;5055545;28;20035;-63
2023/04/26 13:45:12;;;;;;;6.50;2.43;;;;;;;;;;5055016;28;20465;-62
2023/04/26 13:47:37;;;;;;;5.50;2.13;;;;;;;;;;5055274;28;20025;-63
2023/04/26 13:50:03;;;;;;;6.97;2.30;;;;;;;;;;5053073;28;20026;-63
2023/04/26 13:52:28;;;;;;;6.40;2.10;;;;;;;;;;5055381;28;20021;-62
2023/04/26 13:54:54;;;;;;;5.40;2.13;;;;;;;;;;5055629;28;20051;-63
2023/04/26 13:57:20;;;;;;;7.03;2.13;;;;;;;;;;5054467;28;20013;-62
2023/04/26 13:59:45;;;;;;;7.83;2.30;;;;;;;;;;5055193;28;20047;-62
2023/04/26 14:02:11;;;;;;;9.40;2.70;;;;;;;;;;5054109;28;20020;-62
2023/04/26 14:04:36;;;;;;;7.73;2.97;;;;;;;;;;5035110;28;20057;-63
2023/04/26 14:07:02;;;;;;;6.90;2.53;;;;;;;;;;5052074;28;20056;-62
2023/04/26 14:09:27;;;;;;;7.90;2.60;;;;;;;;;;5055499;28;20370;-62
2023/04/26 14:11:52;;;;;;;6.93;2.20;;;;;;;;;;5054593;28;20033;-63
2023/04/26 14:14:18;;;;;;;10.33;3.20;;;;;;;;;;5054515;28;20029;-63
2023/04/26 14:16:43;;;;;;;7.83;2.70;;;;;;;;;;5054314;28;20103;-62
2023/04/26 14:19:08;;;;;;;8.80;2.67;;;;;;;;;;5055202;28;20460;-62
2023/04/26 14:21:34;;;;;;;7.87;3.00;;;;;;;;;;5053365;28;20362;-62
2023/04/26 14:24:00;;;;;;;6.30;2.30;;;;;;;;;;5055154;28;20017;-62
2023/04/26 14:26:25;;;;;;;6.20;2.10;;;;;;;;;;5054479;28;20389;-62
2023/04/26 14:28:51;;;;;;;6.27;2.10;;;;;;;;;;5055026;28;20388;-63
2023/04/26 14:31:17;;;;;;;8.63;2.47;;;;;;;;;;5054929;28;20033;-63
2023/04/26 14:33:42;;;;;;;6.83;2.47;;;;;;;;;;5054600;28;20021;-63
2023/04/26 14:36:07;;;;;;;8.13;2.53;;;;;;;;;;5053917;28;20119;-63